Fujin, China
Current Conditions -  °F | °C
As of 4:30 PM on Friday 28 Nov 2014 (Local Time) from UHHH Reporting Station
Clear Clear  
Wind Chill: -2°   Ceiling: Unl
Heat Index:   Visibility: 6mi
Dew Point: -6°   Wind: 4mph
Humidity: 56%   Direction: 230°SW
Pressure: 30.24"   Gusts: NA
Location:  47.27°N, 132.02°E
Report Text: UHHH 280830Z 23002MPS CAVOK M14/M21 Q1024 NOSIG RMK QFE761/101523090060
Loading
Personal Weather Stations






























Interactive Weather Map New forecast layout! Learn more

10-Day Weather Forecast

Advertisements
Track Severe Weather on mobile